sensor_id;sensor_type;location;lat;lon;timestamp;pressure;altitude;pressure_sealevel;temperature;humidity
59873;BME280;50750;51.636;4.948;2024-01-11T00:00:27;103370.36;;;6.44;52.57
59873;BME280;50750;51.636;4.948;2024-01-11T00:03:17;103367.06;;;6.44;52.60
59873;BME280;50750;51.636;4.948;2024-01-11T00:05:47;103373.31;;;6.43;52.54
59873;BME280;50750;51.636;4.948;2024-01-11T00:08:18;103372.96;;;6.43;52.55
59873;BME280;50750;51.636;4.948;2024-01-11T00:10:48;103372.27;;;6.43;52.58
59873;BME280;50750;51.636;4.948;2024-01-11T00:13:19;103373.15;;;6.43;52.55
59873;BME280;50750;51.636;4.948;2024-01-11T00:15:49;103375.58;;;6.43;52.66
59873;BME280;50750;51.636;4.948;2024-01-11T00:18:19;103377.84;;;6.43;52.74
59873;BME280;50750;51.636;4.948;2024-01-11T00:20:49;103376.42;;;6.42;52.56
59873;BME280;50750;51.636;4.948;2024-01-11T00:23:20;103383.56;;;6.42;52.51
59873;BME280;50750;51.636;4.948;2024-01-11T00:25:52;103386.68;;;6.42;52.50
59873;BME280;50750;51.636;4.948;2024-01-11T00:28:22;103382.84;;;6.41;52.64
59873;BME280;50750;51.636;4.948;2024-01-11T00:30:52;103382.15;;;6.41;52.61
59873;BME280;50750;51.636;4.948;2024-01-11T00:33:23;103380.41;;;6.41;52.67
59873;BME280;50750;51.636;4.948;2024-01-11T00:35:53;103381.10;;;6.41;52.64
59873;BME280;50750;51.636;4.948;2024-01-11T00:38:25;103378.66;;;6.41;52.73
59873;BME280;50750;51.636;4.948;2024-01-11T00:40:56;103373.08;;;6.40;52.70
59873;BME280;50750;51.636;4.948;2024-01-11T00:43:26;103372.20;;;6.40;52.68
59873;BME280;50750;51.636;4.948;2024-01-11T00:45:56;103373.95;;;6.40;52.54
59873;BME280;50750;51.636;4.948;2024-01-11T00:48:27;103382.48;;;6.40;52.62
59873;BME280;50750;51.636;4.948;2024-01-11T00:50:57;103381.42;;;6.40;52.57
59873;BME280;50750;51.636;4.948;2024-01-11T00:53:27;103375.99;;;6.38;52.49
59873;BME280;50750;51.636;4.948;2024-01-11T00:55:59;103373.40;;;6.39;52.67
59873;BME280;50750;51.636;4.948;2024-01-11T00:58:30;103376.52;;;6.39;52.59
59873;BME280;50750;51.636;4.948;2024-01-11T01:01:00;103385.73;;;6.39;52.61
59873;BME280;50750;51.636;4.948;2024-01-11T01:03:30;103385.73;;;6.39;52.63
59873;BME280;50750;51.636;4.948;2024-01-11T01:06:01;103384.86;;;6.39;52.61
59873;BME280;50750;51.636;4.948;2024-01-11T01:08:31;103383.64;;;6.39;52.54
59873;BME280;50750;51.636;4.948;2024-01-11T01:11:02;103383.27;;;6.38;52.68
59873;BME280;50750;51.636;4.948;2024-01-11T01:13:32;103389.37;;;6.38;52.50
59873;BME280;50750;51.636;4.948;2024-01-11T01:16:03;103393.37;;;6.38;52.57
59873;BME280;50750;51.636;4.948;2024-01-11T01:18:34;103393.55;;;6.37;52.61
59873;BME280;50750;51.636;4.948;2024-01-11T01:21:05;103393.54;;;6.37;52.69
59873;BME280;50750;51.636;4.948;2024-01-11T01:23:35;103401.71;;;6.37;52.62
59873;BME280;50750;51.636;4.948;2024-01-11T01:26:08;103400.65;;;6.36;52.75
59873;BME280;50750;51.636;4.948;2024-01-11T01:28:39;103401.33;;;6.36;52.65
59873;BME280;50750;51.636;4.948;2024-01-11T01:31:09;103402.35;;;6.35;52.57
59873;BME280;50750;51.636;4.948;2024-01-11T01:33:40;103403.58;;;6.36;52.74
59873;BME280;50750;51.636;4.948;2024-01-11T01:36:11;103400.08;;;6.35;52.73
59873;BME280;50750;51.636;4.948;2024-01-11T01:38:41;103403.73;;;6.35;52.76
59873;BME280;50750;51.636;4.948;2024-01-11T01:41:12;103413.30;;;6.35;52.64
59873;BME280;50750;51.636;4.948;2024-01-11T01:43:45;103413.48;;;6.35;52.65
59873;BME280;50750;51.636;4.948;2024-01-11T01:46:21;103420.44;;;6.35;52.61
59873;BME280;50750;51.636;4.948;2024-01-11T01:48:55;103423.35;;;6.34;52.51
59873;BME280;50750;51.636;4.948;2024-01-11T01:51:31;103426.48;;;6.34;52.79
59873;BME280;50750;51.636;4.948;2024-01-11T01:54:03;103427.52;;;6.33;52.73
59873;BME280;50750;51.636;4.948;2024-01-11T01:56:34;103430.64;;;6.33;52.68
59873;BME280;50750;51.636;4.948;2024-01-11T01:59:05;103433.78;;;6.33;52.76
59873;BME280;50750;51.636;4.948;2024-01-11T02:01:35;103434.11;;;6.33;52.79
59873;BME280;50750;51.636;4.948;2024-01-11T02:04:06;103434.48;;;6.33;52.74
59873;BME280;50750;51.636;4.948;2024-01-11T02:06:37;103430.30;;;6.33;52.70
59873;BME280;50750;51.636;4.948;2024-01-11T02:09:07;103430.30;;;6.33;52.73
59873;BME280;50750;51.636;4.948;2024-01-11T02:11:38;103426.64;;;6.33;52.75
59873;BME280;50750;51.636;4.948;2024-01-11T02:14:11;103428.03;;;6.33;52.62
59873;BME280;50750;51.636;4.948;2024-01-11T02:16:41;103424.20;;;6.32;52.63
59873;BME280;50750;51.636;4.948;2024-01-11T02:19:14;103421.06;;;6.32;52.63
59873;BME280;50750;51.636;4.948;2024-01-11T02:21:48;103423.84;;;6.32;52.70
59873;BME280;50750;51.636;4.948;2024-01-11T02:24:20;103427.66;;;6.32;52.64
59873;BME280;50750;51.636;4.948;2024-01-11T02:27:00;103429.57;;;6.32;52.74
59873;BME280;50750;51.636;4.948;2024-01-11T02:29:31;103428.85;;;6.31;52.66
59873;BME280;50750;51.636;4.948;2024-01-11T02:32:04;103433.53;;;6.31;52.81
59873;BME280;50750;51.636;4.948;2024-01-11T02:34:35;103435.80;;;6.31;52.68
59873;BME280;50750;51.636;4.948;2024-01-11T02:37:07;103435.81;;;6.31;52.84
59873;BME280;50750;51.636;4.948;2024-01-11T02:39:38;103437.02;;;6.31;52.67
59873;BME280;50750;51.636;4.948;2024-01-11T02:42:09;103438.93;;;6.31;52.53
59873;BME280;50750;51.636;4.948;2024-01-11T02:44:39;103436.15;;;6.31;52.61
59873;BME280;50750;51.636;4.948;2024-01-11T02:47:10;103432.30;;;6.30;52.64
59873;BME280;50750;51.636;4.948;2024-01-11T02:49:40;103429.87;;;6.30;52.76
59873;BME280;50750;51.636;4.948;2024-01-11T02:52:10;103426.56;;;6.30;52.75
59873;BME280;50750;51.636;4.948;2024-01-11T02:54:40;103430.39;;;6.30;52.73
59873;BME280;50750;51.636;4.948;2024-01-11T02:57:11;103432.29;;;6.29;52.71
59873;BME280;50750;51.636;4.948;2024-01-11T02:59:43;103437.34;;;6.30;52.67
59873;BME280;50750;51.636;4.948;2024-01-11T03:02:13;103440.13;;;6.29;52.74
59873;BME280;50750;51.636;4.948;2024-01-11T03:04:43;103436.98;;;6.29;52.56
59873;BME280;50750;51.636;4.948;2024-01-11T03:07:14;103435.05;;;6.29;52.60
59873;BME280;50750;51.636;4.948;2024-01-11T03:09:44;103431.39;;;6.29;52.86
59873;BME280;50750;51.636;4.948;2024-01-11T03:12:15;103435.02;;;6.28;52.73
59873;BME280;50750;51.636;4.948;2024-01-11T03:14:45;103436.94;;;6.28;52.68
59873;BME280;50750;51.636;4.948;2024-01-11T03:17:15;103443.02;;;6.28;52.69
59873;BME280;50750;51.636;4.948;2024-01-11T03:19:46;103447.90;;;6.28;52.79
59873;BME280;50750;51.636;4.948;2024-01-11T03:22:16;103444.23;;;6.28;52.66
59873;BME280;50750;51.636;4.948;2024-01-11T03:24:47;103439.69;;;6.27;52.63
59873;BME280;50750;51.636;4.948;2024-01-11T03:27:17;103437.26;;;6.27;52.75
59873;BME280;50750;51.636;4.948;2024-01-11T03:29:47;103443.88;;;6.27;52.72
59873;BME280;50750;51.636;4.948;2024-01-11T03:32:18;103442.48;;;6.27;52.72
59873;BME280;50750;51.636;4.948;2024-01-11T03:34:48;103444.91;;;6.27;52.64
59873;BME280;50750;51.636;4.948;2024-01-11T03:37:19;103447.00;;;6.26;52.59
59873;BME280;50750;51.636;4.948;2024-01-11T03:39:49;103442.11;;;6.26;52.71
59873;BME280;50750;51.636;4.948;2024-01-11T03:42:19;103433.91;;;6.26;52.69
59873;BME280;50750;51.636;4.948;2024-01-11T03:44:50;103432.36;;;6.26;52.61
59873;BME280;50750;51.636;4.948;2024-01-11T03:47:20;103428.89;;;6.26;52.72
59873;BME280;50750;51.636;4.948;2024-01-11T03:49:50;103429.55;;;6.25;52.72
59873;BME280;50750;51.636;4.948;2024-01-11T03:52:20;103422.75;;;6.25;52.79
59873;BME280;50750;51.636;4.948;2024-01-11T03:54:51;103425.19;;;6.25;52.64
59873;BME280;50750;51.636;4.948;2024-01-11T03:57:21;103435.98;;;6.25;52.82
59873;BME280;50750;51.636;4.948;2024-01-11T03:59:51;103435.79;;;6.25;52.61
59873;BME280;50750;51.636;4.948;2024-01-11T04:02:23;103435.77;;;6.24;52.52
59873;BME280;50750;51.636;4.948;2024-01-11T04:04:53;103433.17;;;6.24;52.64
59873;BME280;50750;51.636;4.948;2024-01-11T04:07:24;103434.75;;;6.24;52.58
59873;BME280;50750;51.636;4.948;2024-01-11T04:09:54;103434.38;;;6.24;52.60
59873;BME280;50750;51.636;4.948;2024-01-11T04:12:24;103432.81;;;6.24;52.72
59873;BME280;50750;51.636;4.948;2024-01-11T04:14:55;103439.93;;;6.23;52.58
59873;BME280;50750;51.636;4.948;2024-01-11T04:17:25;103450.18;;;6.23;52.65
59873;BME280;50750;51.636;4.948;2024-01-11T04:19:55;103451.39;;;6.23;52.62
59873;BME280;50750;51.636;4.948;2024-01-11T04:22:29;103458.18;;;6.23;52.69
59873;BME280;50750;51.636;4.948;2024-01-11T04:24:59;103467.92;;;6.23;52.64
59873;BME280;50750;51.636;4.948;2024-01-11T04:27:29;103474.53;;;6.23;52.60
59873;BME280;50750;51.636;4.948;2024-01-11T04:30:00;103476.96;;;6.22;52.59
59873;BME280;50750;51.636;4.948;2024-01-11T04:32:30;103468.95;;;6.22;52.59
59873;BME280;50750;51.636;4.948;2024-01-11T04:35:00;103468.08;;;6.22;52.71
59873;BME280;50750;51.636;4.948;2024-01-11T04:37:30;103473.30;;;6.22;52.66
59873;BME280;50750;51.636;4.948;2024-01-11T04:40:01;103472.23;;;6.21;52.59
59873;BME280;50750;51.636;4.948;2024-01-11T04:42:32;103474.34;;;6.22;52.66
59873;BME280;50750;51.636;4.948;2024-01-11T04:45:03;103478.14;;;6.21;52.58
59873;BME280;50750;51.636;4.948;2024-01-11T04:47:34;103480.58;;;6.21;52.56
59873;BME280;50750;51.636;4.948;2024-01-11T04:50:06;103489.09;;;6.20;52.51
59873;BME280;50750;51.636;4.948;2024-01-11T04:52:36;103484.56;;;6.20;52.67
59873;BME280;50750;51.636;4.948;2024-01-11T04:55:07;103483.67;;;6.20;52.55
59873;BME280;50750;51.636;4.948;2024-01-11T04:57:38;103485.42;;;6.20;52.52
59873;BME280;50750;51.636;4.948;2024-01-11T05:00:10;103481.41;;;6.19;52.67
59873;BME280;50750;51.636;4.948;2024-01-11T05:02:40;103477.40;;;6.19;52.63
59873;BME280;50750;51.636;4.948;2024-01-11T05:05:10;103479.31;;;6.19;52.49
59873;BME280;50750;51.636;4.948;2024-01-11T05:07:41;103480.52;;;6.19;52.58
59873;BME280;50750;51.636;4.948;2024-01-11T05:10:12;103487.48;;;6.18;52.48
59873;BME280;50750;51.636;4.948;2024-01-11T05:12:42;103486.96;;;6.18;52.44
59873;BME280;50750;51.636;4.948;2024-01-11T05:15:13;103493.20;;;6.18;52.50
59873;BME280;50750;51.636;4.948;2024-01-11T05:17:44;103504.50;;;6.18;52.52
59873;BME280;50750;51.636;4.948;2024-01-11T05:20:14;103508.33;;;6.18;52.46
59873;BME280;50750;51.636;4.948;2024-01-11T05:22:45;103508.51;;;6.18;52.53
59873;BME280;50750;51.636;4.948;2024-01-11T05:25:15;103511.13;;;6.18;52.59
59873;BME280;50750;51.636;4.948;2024-01-11T05:27:45;103513.88;;;6.17;52.41
59873;BME280;50750;51.636;4.948;2024-01-11T05:30:16;103511.27;;;6.17;52.62
59873;BME280;50750;51.636;4.948;2024-01-11T05:32:46;103513.52;;;6.17;52.49
59873;BME280;50750;51.636;4.948;2024-01-11T05:35:17;103524.30;;;6.17;52.58
59873;BME280;50750;51.636;4.948;2024-01-11T05:37:47;103527.08;;;6.16;52.43
59873;BME280;50750;51.636;4.948;2024-01-11T05:40:17;103524.64;;;6.17;52.39
59873;BME280;50750;51.636;4.948;2024-01-11T05:42:48;103531.59;;;6.16;52.47
59873;BME280;50750;51.636;4.948;2024-01-11T05:45:19;103535.59;;;6.16;52.53
59873;BME280;50750;51.636;4.948;2024-01-11T05:47:50;103543.06;;;6.15;52.52
59873;BME280;50750;51.636;4.948;2024-01-11T05:50:21;103542.17;;;6.15;52.49
59873;BME280;50750;51.636;4.948;2024-01-11T05:52:51;103536.77;;;6.15;52.47
59873;BME280;50750;51.636;4.948;2024-01-11T05:55:23;103525.27;;;6.14;52.45
59873;BME280;50750;51.636;4.948;2024-01-11T05:57:53;103515.70;;;6.14;52.47
59873;BME280;50750;51.636;4.948;2024-01-11T06:00:24;103513.95;;;6.14;52.46
59873;BME280;50750;51.636;4.948;2024-01-11T06:02:56;103509.77;;;6.14;52.25
59873;BME280;50750;51.636;4.948;2024-01-11T06:05:26;103517.59;;;6.14;52.30
59873;BME280;50750;51.636;4.948;2024-01-11T06:07:56;103522.64;;;6.13;52.50
59873;BME280;50750;51.636;4.948;2024-01-11T06:10:27;103526.11;;;6.14;52.43
59873;BME280;50750;51.636;4.948;2024-01-11T06:12:57;103529.41;;;6.13;52.46
59873;BME280;50750;51.636;4.948;2024-01-11T06:15:27;103538.97;;;6.13;52.40
59873;BME280;50750;51.636;4.948;2024-01-11T06:17:57;103540.35;;;6.13;52.41
59873;BME280;50750;51.636;4.948;2024-01-11T06:20:29;103553.75;;;6.13;52.41
59873;BME280;50750;51.636;4.948;2024-01-11T06:23:00;103550.42;;;6.12;52.54
59873;BME280;50750;51.636;4.948;2024-01-11T06:25:30;103552.67;;;6.12;52.42
59873;BME280;50750;51.636;4.948;2024-01-11T06:28:02;103549.90;;;6.12;52.42
59873;BME280;50750;51.636;4.948;2024-01-11T06:30:32;103541.72;;;6.12;52.53
59873;BME280;50750;51.636;4.948;2024-01-11T06:33:03;103540.48;;;6.11;52.51
59873;BME280;50750;51.636;4.948;2024-01-11T06:35:34;103546.39;;;6.11;52.47
59873;BME280;50750;51.636;4.948;2024-01-11T06:38:04;103551.09;;;6.11;52.60
59873;BME280;50750;51.636;4.948;2024-01-11T06:40:34;103538.05;;;6.11;52.57
59873;BME280;50750;51.636;4.948;2024-01-11T06:43:05;103537.00;;;6.11;52.38
59873;BME280;50750;51.636;4.948;2024-01-11T06:45:35;103528.81;;;6.11;52.51
59873;BME280;50750;51.636;4.948;2024-01-11T06:48:07;103529.85;;;6.11;52.32
59873;BME280;50750;51.636;4.948;2024-01-11T06:50:40;103543.23;;;6.10;52.41
59873;BME280;50750;51.636;4.948;2024-01-11T06:53:10;103543.05;;;6.10;52.55
59873;BME280;50750;51.636;4.948;2024-01-11T06:55:41;103540.61;;;6.10;52.43
59873;BME280;50750;51.636;4.948;2024-01-11T06:58:12;103550.89;;;6.10;52.48
59873;BME280;50750;51.636;4.948;2024-01-11T07:00:43;103553.84;;;6.10;52.42
59873;BME280;50750;51.636;4.948;2024-01-11T07:03:13;103556.11;;;6.10;52.44
59873;BME280;50750;51.636;4.948;2024-01-11T07:05:44;103556.41;;;6.10;52.38
59873;BME280;50750;51.636;4.948;2024-01-11T07:08:14;103563.04;;;6.10;52.50
59873;BME280;50750;51.636;4.948;2024-01-11T07:10:44;103561.46;;;6.09;52.41
59873;BME280;50750;51.636;4.948;2024-01-11T07:13:15;103568.23;;;6.09;52.36
59873;BME280;50750;51.636;4.948;2024-01-11T07:15:46;103573.79;;;6.09;52.53
59873;BME280;50750;51.636;4.948;2024-01-11T07:18:17;103582.31;;;6.08;52.51
59873;BME280;50750;51.636;4.948;2024-01-11T07:20:48;103591.00;;;6.08;52.42
59873;BME280;50750;51.636;4.948;2024-01-11T07:23:18;103594.83;;;6.08;52.35
59873;BME280;50750;51.636;4.948;2024-01-11T07:25:49;103593.27;;;6.08;52.37
59873;BME280;50750;51.636;4.948;2024-01-11T07:28:19;103589.94;;;6.07;52.47
59873;BME280;50750;51.636;4.948;2024-01-11T07:30:55;103594.29;;;6.08;52.33
59873;BME280;50750;51.636;4.948;2024-01-11T07:33:25;103590.27;;;6.07;52.28
59873;BME280;50750;51.636;4.948;2024-01-11T07:35:58;103585.02;;;6.06;52.35
59873;BME280;50750;51.636;4.948;2024-01-11T07:38:29;103595.45;;;6.06;52.44
59873;BME280;50750;51.636;4.948;2024-01-11T07:40:59;103598.43;;;6.06;52.31
59873;BME280;50750;51.636;4.948;2024-01-11T07:43:29;103598.75;;;6.06;52.37
59873;BME280;50750;51.636;4.948;2024-01-11T07:46:04;103592.81;;;6.05;52.29
59873;BME280;50750;51.636;4.948;2024-01-11T07:48:36;103592.64;;;6.05;52.35
59873;BME280;50750;51.636;4.948;2024-01-11T07:51:07;103589.99;;;6.04;52.35
59873;BME280;50750;51.636;4.948;2024-01-11T07:53:37;103588.27;;;6.04;52.46
59873;BME280;50750;51.636;4.948;2024-01-11T07:56:09;103592.09;;;6.04;52.47
59873;BME280;50750;51.636;4.948;2024-01-11T07:58:39;103595.73;;;6.04;52.48
59873;BME280;50750;51.636;4.948;2024-01-11T08:01:11;103592.24;;;6.04;52.43
59873;BME280;50750;51.636;4.948;2024-01-11T08:03:42;103589.10;;;6.04;52.49
59873;BME280;50750;51.636;4.948;2024-01-11T08:06:14;103585.63;;;6.04;52.26
59873;BME280;50750;51.636;4.948;2024-01-11T08:08:44;103585.97;;;6.03;52.43
59873;BME280;50750;51.636;4.948;2024-01-11T08:11:20;103583.19;;;6.03;52.45
59873;BME280;50750;51.636;4.948;2024-01-11T08:13:51;103577.09;;;6.03;52.36
59873;BME280;50750;51.636;4.948;2024-01-11T08:16:23;103579.50;;;6.02;52.32
59873;BME280;50750;51.636;4.948;2024-01-11T08:18:54;103581.58;;;6.02;52.51
59873;BME280;50750;51.636;4.948;2024-01-11T08:21:24;103580.19;;;6.02;52.48
59873;BME280;50750;51.636;4.948;2024-01-11T08:23:54;103581.21;;;6.02;52.48
59873;BME280;50750;51.636;4.948;2024-01-11T08:26:25;103576.52;;;6.01;52.51
59873;BME280;50750;51.636;4.948;2024-01-11T08:28:55;103573.02;;;6.01;52.41
59873;BME280;50750;51.636;4.948;2024-01-11T08:31:25;103574.58;;;6.01;52.58
59873;BME280;50750;51.636;4.948;2024-01-11T08:33:55;103573.71;;;6.01;52.64
59873;BME280;50750;51.636;4.948;2024-01-11T08:36:26;103572.14;;;6.00;52.41
59873;BME280;50750;51.636;4.948;2024-01-11T08:39:01;103575.79;;;6.00;52.59
59873;BME280;50750;51.636;4.948;2024-01-11T08:41:32;103576.11;;;6.00;52.51
59873;BME280;50750;51.636;4.948;2024-01-11T08:44:03;103581.19;;;6.00;52.58
59873;BME280;50750;51.636;4.948;2024-01-11T08:46:35;103586.89;;;6.00;52.44
59873;BME280;50750;51.636;4.948;2024-01-11T08:49:06;103595.07;;;5.99;52.69
59873;BME280;50750;51.636;4.948;2024-01-11T08:51:38;103591.91;;;5.99;52.72
59873;BME280;50750;51.636;4.948;2024-01-11T08:54:08;103594.90;;;6.00;52.56
59873;BME280;50750;51.636;4.948;2024-01-11T08:56:40;103594.19;;;6.00;52.62
59873;BME280;50750;51.636;4.948;2024-01-11T08:59:10;103598.35;;;5.99;52.51
59873;BME280;50750;51.636;4.948;2024-01-11T09:01:41;103598.00;;;5.99;52.64
59873;BME280;50750;51.636;4.948;2024-01-11T09:04:11;103604.19;;;6.02;52.73
59873;BME280;50750;51.636;4.948;2024-01-11T09:06:42;103611.23;;;6.10;52.63
59873;BME280;50750;51.636;4.948;2024-01-11T09:09:12;103614.98;;;6.18;52.45
59873;BME280;50750;51.636;4.948;2024-01-11T09:11:43;103612.82;;;6.21;52.50
59873;BME280;50750;51.636;4.948;2024-01-11T09:14:13;103612.59;;;6.30;52.40
59873;BME280;50750;51.636;4.948;2024-01-11T09:16:44;103614.02;;;6.43;52.16
59873;BME280;50750;51.636;4.948;2024-01-11T09:19:15;103611.33;;;6.51;51.97
59873;BME280;50750;51.636;4.948;2024-01-11T09:21:45;103614.30;;;6.63;52.01
59873;BME280;50750;51.636;4.948;2024-01-11T09:24:15;103614.71;;;6.71;51.79
59873;BME280;50750;51.636;4.948;2024-01-11T09:26:46;103618.61;;;6.79;51.53
59873;BME280;50750;51.636;4.948;2024-01-11T09:29:19;103619.70;;;6.93;51.38
59873;BME280;50750;51.636;4.948;2024-01-11T09:31:49;103623.16;;;7.10;51.27
59873;BME280;50750;51.636;4.948;2024-01-11T09:34:19;103627.23;;;7.31;50.91
59873;BME280;50750;51.636;4.948;2024-01-11T09:36:50;103634.15;;;7.61;50.49
59873;BME280;50750;51.636;4.948;2024-01-11T09:39:21;103637.25;;;8.00;49.86
59873;BME280;50750;51.636;4.948;2024-01-11T09:41:56;103648.14;;;8.38;49.31
59873;BME280;50750;51.636;4.948;2024-01-11T09:44:28;103647.78;;;8.67;48.43
59873;BME280;50750;51.636;4.948;2024-01-11T09:47:00;103653.23;;;8.85;47.86
59873;BME280;50750;51.636;4.948;2024-01-11T09:49:32;103658.78;;;8.91;47.57
59873;BME280;50750;51.636;4.948;2024-01-11T09:52:04;103657.85;;;8.89;47.46
59873;BME280;50750;51.636;4.948;2024-01-11T09:54:34;103667.34;;;8.83;47.50
59873;BME280;50750;51.636;4.948;2024-01-11T09:57:06;103672.56;;;8.74;47.28
59873;BME280;50750;51.636;4.948;2024-01-11T09:59:38;103680.40;;;8.65;47.44
59873;BME280;50750;51.636;4.948;2024-01-11T10:02:11;103679.67;;;8.57;47.51
59873;BME280;50750;51.636;4.948;2024-01-11T10:04:43;103680.16;;;8.48;47.60
59873;BME280;50750;51.636;4.948;2024-01-11T10:07:14;103679.90;;;8.37;47.73
59873;BME280;50750;51.636;4.948;2024-01-11T10:09:47;103680.52;;;8.27;47.89
59873;BME280;50750;51.636;4.948;2024-01-11T10:12:18;103681.04;;;8.20;48.14
59873;BME280;50750;51.636;4.948;2024-01-11T10:14:52;103681.70;;;8.12;48.08
59873;BME280;50750;51.636;4.948;2024-01-11T10:17:23;103676.93;;;8.03;48.30
59873;BME280;50750;51.636;4.948;2024-01-11T10:19:55;103673.02;;;7.93;48.33
59873;BME280;50750;51.636;4.948;2024-01-11T10:22:28;103674.20;;;7.85;48.48
59873;BME280;50750;51.636;4.948;2024-01-11T10:25:11;103675.07;;;7.77;48.70
59873;BME280;50750;51.636;4.948;2024-01-11T10:27:44;103673.85;;;7.71;48.73
59873;BME280;50750;51.636;4.948;2024-01-11T10:30:15;103672.11;;;7.65;49.08
59873;BME280;50750;51.636;4.948;2024-01-11T10:32:46;103674.77;;;7.61;49.17
59873;BME280;50750;51.636;4.948;2024-01-11T10:35:17;103679.73;;;7.57;49.21
59873;BME280;50750;51.636;4.948;2024-01-11T10:37:51;103685.53;;;7.52;49.34
59873;BME280;50750;51.636;4.948;2024-01-11T10:40:24;103692.20;;;7.47;49.53
59873;BME280;50750;51.636;4.948;2024-01-11T10:42:55;103690.85;;;7.42;49.62
59873;BME280;50750;51.636;4.948;2024-01-11T10:45:32;103691.06;;;7.38;49.55
59873;BME280;50750;51.636;4.948;2024-01-11T10:48:14;103689.75;;;7.34;49.86
59873;BME280;50750;51.636;4.948;2024-01-11T10:50:48;103682.15;;;7.31;49.92
59873;BME280;50750;51.636;4.948;2024-01-11T10:53:28;103676.15;;;7.28;49.91
59873;BME280;50750;51.636;4.948;2024-01-11T10:56:05;103675.02;;;7.25;49.98
59873;BME280;50750;51.636;4.948;2024-01-11T10:58:37;103674.39;;;7.22;50.18
59873;BME280;50750;51.636;4.948;2024-01-11T11:01:10;103680.24;;;7.19;50.15
59873;BME280;50750;51.636;4.948;2024-01-11T11:03:41;103682.96;;;7.17;49.99
59873;BME280;50750;51.636;4.948;2024-01-11T11:06:13;103682.55;;;7.15;50.23
59873;BME280;50750;51.636;4.948;2024-01-11T11:08:44;103686.85;;;7.13;50.17
59873;BME280;50750;51.636;4.948;2024-01-11T11:11:16;103687.29;;;7.10;50.41
59873;BME280;50750;51.636;4.948;2024-01-11T11:13:49;103690.17;;;7.07;50.44
59873;BME280;50750;51.636;4.948;2024-01-11T11:16:19;103688.19;;;7.05;50.48
59873;BME280;50750;51.636;4.948;2024-01-11T11:18:53;103691.40;;;7.02;50.40
59873;BME280;50750;51.636;4.948;2024-01-11T11:21:24;103692.04;;;6.99;50.67
59873;BME280;50750;51.636;4.948;2024-01-11T11:23:56;103697.16;;;6.97;50.77
59873;BME280;50750;51.636;4.948;2024-01-11T11:26:28;103708.60;;;6.95;50.77
59873;BME280;50750;51.636;4.948;2024-01-11T11:28:58;103714.65;;;6.93;50.79
59873;BME280;50750;51.636;4.948;2024-01-11T11:31:42;103718.09;;;6.91;50.90
59873;BME280;50750;51.636;4.948;2024-01-11T11:34:13;103727.42;;;6.89;50.84
59873;BME280;50750;51.636;4.948;2024-01-11T11:36:47;103732.23;;;6.87;50.83
59873;BME280;50750;51.636;4.948;2024-01-11T11:39:19;103731.83;;;6.85;51.10
59873;BME280;50750;51.636;4.948;2024-01-11T11:41:50;103734.05;;;6.84;51.01
59873;BME280;50750;51.636;4.948;2024-01-11T11:44:21;103729.67;;;6.82;51.05
59873;BME280;50750;51.636;4.948;2024-01-11T11:46:52;103724.23;;;6.82;51.06
59873;BME280;50750;51.636;4.948;2024-01-11T11:52:27;103716.66;;;6.79;51.43
59873;BME280;50750;51.636;4.948;2024-01-11T11:54:59;103717.34;;;6.79;51.17
59873;BME280;50750;51.636;4.948;2024-01-11T11:57:30;103721.14;;;6.77;51.36
59873;BME280;50750;51.636;4.948;2024-01-11T12:00:01;103726.51;;;6.76;51.52
59873;BME280;50750;51.636;4.948;2024-01-11T12:02:35;103729.98;;;6.76;51.45
59873;BME280;50750;51.636;4.948;2024-01-11T12:05:07;103726.81;;;6.75;51.52
59873;BME280;50750;51.636;4.948;2024-01-11T12:07:37;103726.28;;;6.75;51.40
59873;BME280;50750;51.636;4.948;2024-01-11T12:10:08;103719.29;;;6.74;51.53
59873;BME280;50750;51.636;4.948;2024-01-11T12:12:39;103717.01;;;6.74;51.56
59873;BME280;50750;51.636;4.948;2024-01-11T12:15:11;103713.52;;;6.73;51.59
59873;BME280;50750;51.636;4.948;2024-01-11T12:17:41;103705.66;;;6.73;51.60
59873;BME280;50750;51.636;4.948;2024-01-11T12:20:12;103702.36;;;6.73;51.74
59873;BME280;50750;51.636;4.948;2024-01-11T12:22:43;103700.55;;;6.71;51.85
59873;BME280;50750;51.636;4.948;2024-01-11T12:25:14;103697.61;;;6.71;51.69
59873;BME280;50750;51.636;4.948;2024-01-11T12:27:46;103695.66;;;6.71;51.84
59873;BME280;50750;51.636;4.948;2024-01-11T12:30:17;103690.43;;;6.70;51.94
59873;BME280;50750;51.636;4.948;2024-01-11T12:32:48;103686.94;;;6.70;51.88
59873;BME280;50750;51.636;4.948;2024-01-11T12:35:19;103686.89;;;6.68;52.02
59873;BME280;50750;51.636;4.948;2024-01-11T12:37:55;103682.02;;;6.68;52.09
59873;BME280;50750;51.636;4.948;2024-01-11T12:40:25;103685.99;;;6.67;52.00
59873;BME280;50750;51.636;4.948;2024-01-11T12:42:57;103683.55;;;6.67;52.15
59873;BME280;50750;51.636;4.948;2024-01-11T12:45:29;103685.27;;;6.67;52.25
59873;BME280;50750;51.636;4.948;2024-01-11T12:48:01;103686.29;;;6.66;52.26
59873;BME280;50750;51.636;4.948;2024-01-11T12:50:33;103682.79;;;6.65;52.33
59873;BME280;50750;51.636;4.948;2024-01-11T12:53:08;103677.38;;;6.65;52.48
59873;BME280;50750;51.636;4.948;2024-01-11T12:55:41;103676.33;;;6.64;52.44
59873;BME280;50750;51.636;4.948;2024-01-11T12:58:11;103670.55;;;6.63;52.58
59873;BME280;50750;51.636;4.948;2024-01-11T13:00:42;103669.31;;;6.63;52.40
59873;BME280;50750;51.636;4.948;2024-01-11T13:03:12;103672.61;;;6.63;52.53
59873;BME280;50750;51.636;4.948;2024-01-11T13:05:42;103673.48;;;6.63;52.50
59873;BME280;50750;51.636;4.948;2024-01-11T13:08:13;103675.73;;;6.61;52.46
59873;BME280;50750;51.636;4.948;2024-01-11T13:10:43;103674.66;;;6.61;52.55
59873;BME280;50750;51.636;4.948;2024-01-11T13:13:16;103669.77;;;6.60;52.56
59873;BME280;50750;51.636;4.948;2024-01-11T13:15:46;103668.16;;;6.59;52.71
59873;BME280;50750;51.636;4.948;2024-01-11T13:18:17;103661.50;;;6.58;52.72
59873;BME280;50750;51.636;4.948;2024-01-11T13:20:47;103670.90;;;6.58;52.72
59873;BME280;50750;51.636;4.948;2024-01-11T13:23:19;103672.44;;;6.57;52.83